createdAt,value
2022-09-18T00:00:09.907Z,10.63
2022-09-18T00:02:38.121Z,10.61
2022-09-18T00:05:08.200Z,10.60
2022-09-18T00:07:38.146Z,10.59
2022-09-18T00:10:09.580Z,10.59
2022-09-18T00:12:39.608Z,10.57
2022-09-18T00:15:09.455Z,10.60
2022-09-18T00:17:38.652Z,10.59
2022-09-18T00:20:08.713Z,10.55
2022-09-18T00:22:36.950Z,10.55
2022-09-18T00:25:08.696Z,10.50
2022-09-18T00:27:37.288Z,10.49
2022-09-18T00:30:07.442Z,10.49
2022-09-18T00:32:35.850Z,10.45
2022-09-18T00:35:07.367Z,10.42
2022-09-18T00:37:35.719Z,10.42
2022-09-18T00:40:04.512Z,10.42
2022-09-18T00:42:34.132Z,10.39
2022-09-18T00:45:03.449Z,10.39
2022-09-18T00:47:33.879Z,10.37
2022-09-18T00:50:06.983Z,10.36
2022-09-18T00:52:44.587Z,10.36
2022-09-18T00:55:13.489Z,10.34
2022-09-18T00:57:47.943Z,10.32
2022-09-18T01:00:16.547Z,10.32
2022-09-18T01:02:46.690Z,10.29
2022-09-18T01:05:16.343Z,10.26
2022-09-18T01:07:54.505Z,10.25
2022-09-18T01:10:34.066Z,10.20
2022-09-18T01:13:12.471Z,10.16
2022-09-18T01:15:44.423Z,10.16
2022-09-18T01:18:21.732Z,10.12
2022-09-18T01:20:59.038Z,10.12
2022-09-18T01:24:00.013Z,10.08
2022-09-18T01:26:44.771Z,10.09
2022-09-18T01:29:20.369Z,10.06
2022-09-18T01:31:52.069Z,10.03
2022-09-18T01:34:27.438Z,10.08
2022-09-18T01:37:01.324Z,10.06
2022-09-18T01:39:32.499Z,10.03
2022-09-18T01:42:01.050Z,10.05
2022-09-18T01:44:32.486Z,10.02
2022-09-18T01:47:09.201Z,10.02
2022-09-18T01:49:41.041Z,10.01
2022-09-18T01:52:11.749Z,10.01
2022-09-18T01:54:43.679Z,10.02
2022-09-18T01:57:14.195Z,10.05
2022-09-18T01:59:49.784Z,10.03
2022-09-18T02:02:25.076Z,10.06
2022-09-18T02:05:02.954Z,10.06
2022-09-18T02:07:37.160Z,10.08
2022-09-18T02:10:08.411Z,10.08
2022-09-18T02:12:39.220Z,10.08
2022-09-18T02:15:13.895Z,10.06
2022-09-18T02:17:44.216Z,10.09
2022-09-18T02:20:16.837Z,10.10
2022-09-18T02:22:46.218Z,10.10
2022-09-18T02:25:19.072Z,10.08
2022-09-18T02:27:48.917Z,10.09
2022-09-18T02:30:18.984Z,10.09
2022-09-18T02:32:47.527Z,10.09
2022-09-18T02:35:17.017Z,10.13
2022-09-18T02:37:56.018Z,10.12
2022-09-18T02:40:34.478Z,10.10
2022-09-18T02:43:13.833Z,10.12
2022-09-18T02:45:48.713Z,10.09
2022-09-18T02:48:30.737Z,10.06
2022-09-18T02:51:05.741Z,10.09
2022-09-18T02:53:38.194Z,10.09
2022-09-18T02:56:07.347Z,10.09
2022-09-18T02:58:39.376Z,10.06
2022-09-18T03:01:09.654Z,10.01
2022-09-18T03:03:39.792Z,9.98
2022-09-18T03:06:09.015Z,9.99
2022-09-18T03:08:37.974Z,9.98
2022-09-18T03:11:06.685Z,9.98
2022-09-18T03:13:35.656Z,9.98
2022-09-18T03:16:04.461Z,9.95
2022-09-18T03:18:42.940Z,9.92
2022-09-18T03:21:11.371Z,9.92
2022-09-18T03:23:42.337Z,9.91
2022-09-18T03:26:16.131Z,9.92
2022-09-18T03:28:45.180Z,9.92
2022-09-18T03:31:14.862Z,9.88
2022-09-18T03:33:44.704Z,9.87
2022-09-18T03:36:12.882Z,9.88
2022-09-18T03:38:41.678Z,9.85
2022-09-18T03:41:09.927Z,9.84
2022-09-18T03:43:37.982Z,9.84
2022-09-18T03:46:06.722Z,9.79
2022-09-18T03:48:35.443Z,9.78
2022-09-18T03:51:06.295Z,9.75
2022-09-18T03:53:37.514Z,9.73
2022-09-18T03:56:06.075Z,9.70
2022-09-18T03:58:36.418Z,9.70
2022-09-18T04:01:05.134Z,9.70
2022-09-18T04:03:35.478Z,9.70
2022-09-18T04:06:05.951Z,9.68
2022-09-18T04:08:38.473Z,9.65
2022-09-18T04:11:07.158Z,9.65
2022-09-18T04:13:36.226Z,9.64
2022-09-18T04:16:04.528Z,9.58
2022-09-18T04:18:33.275Z,9.55
2022-09-18T04:21:02.791Z,9.50
2022-09-18T04:23:32.146Z,9.48
2022-09-18T04:26:03.779Z,9.41
2022-09-18T04:28:32.260Z,9.37
2022-09-18T04:31:00.928Z,9.30
2022-09-18T04:33:29.021Z,9.29
2022-09-18T04:35:57.295Z,9.20
2022-09-18T04:38:28.445Z,9.15
2022-09-18T04:40:59.264Z,9.12
2022-09-18T04:43:28.392Z,9.06
2022-09-18T04:45:57.035Z,9.05
2022-09-18T04:48:26.011Z,9.03
2022-09-18T04:50:55.702Z,9.02
2022-09-18T04:53:23.981Z,9.03
2022-09-18T04:55:52.768Z,9.02
2022-09-18T04:58:25.198Z,9.02
2022-09-18T05:00:53.358Z,9.03
2022-09-18T05:03:22.734Z,9.00
2022-09-18T05:05:52.935Z,9.03
2022-09-18T05:08:22.698Z,9.03
2022-09-18T05:10:51.047Z,9.00
2022-09-18T05:13:19.324Z,9.02
2022-09-18T05:15:48.853Z,9.00
2022-09-18T05:18:17.886Z,8.99
2022-09-18T05:20:46.501Z,9.02
2022-09-18T05:23:15.685Z,9.02
2022-09-18T05:25:46.423Z,9.03
2022-09-18T05:28:17.899Z,9.03
2022-09-18T05:30:47.047Z,9.02
2022-09-18T05:33:17.853Z,9.06
2022-09-18T05:35:46.227Z,9.13
2022-09-18T05:38:14.879Z,9.22
2022-09-18T05:40:43.497Z,9.24
2022-09-18T05:43:12.412Z,9.26
2022-09-18T05:45:40.409Z,9.20
2022-09-18T05:48:08.663Z,9.24
2022-09-18T05:50:38.791Z,9.31
2022-09-18T05:53:10.860Z,9.46
2022-09-18T05:55:39.956Z,9.75
2022-09-18T05:58:13.288Z,10.06
2022-09-18T06:00:41.906Z,10.40
2022-09-18T06:03:11.698Z,10.70
2022-09-18T06:05:42.267Z,11.02
2022-09-18T06:08:12.572Z,11.28
2022-09-18T06:10:41.787Z,11.60
2022-09-18T06:13:14.606Z,11.93
2022-09-18T06:15:45.134Z,12.20
2022-09-18T06:18:14.735Z,12.49
2022-09-18T06:20:44.939Z,12.75
2022-09-18T06:23:14.542Z,12.96
2022-09-18T06:25:44.151Z,13.07
2022-09-18T06:28:13.694Z,13.32
2022-09-18T06:30:42.144Z,13.51
2022-09-18T06:33:13.382Z,13.69
2022-09-18T06:35:45.061Z,13.83
2022-09-18T06:38:16.183Z,14.03
2022-09-18T06:40:52.427Z,14.17
2022-09-18T06:43:21.552Z,14.40
2022-09-18T06:45:55.640Z,14.57
2022-09-18T06:48:25.262Z,14.57
2022-09-18T06:50:54.463Z,14.71
2022-09-18T06:53:26.106Z,14.92
2022-09-18T06:55:56.453Z,14.96
2022-09-18T06:58:27.386Z,15.02
2022-09-18T07:00:56.371Z,14.99
2022-09-18T07:03:24.380Z,14.85
2022-09-18T07:05:52.647Z,14.85
2022-09-18T07:08:20.927Z,15.09
2022-09-18T07:10:54.353Z,15.20
2022-09-18T07:13:22.861Z,15.00
2022-09-18T07:15:51.795Z,15.20
2022-09-18T07:18:20.389Z,15.46
2022-09-18T07:20:49.640Z,15.73
2022-09-18T07:23:17.839Z,15.85
2022-09-18T07:25:49.569Z,16.06
2022-09-18T07:28:20.360Z,16.25
2022-09-18T07:30:50.354Z,16.46
2022-09-18T07:33:21.041Z,16.66
2022-09-18T07:35:50.176Z,16.64
2022-09-18T07:38:19.302Z,16.50
2022-09-18T07:40:47.340Z,16.46
2022-09-18T07:43:16.337Z,16.43
2022-09-18T07:45:48.840Z,16.57
2022-09-18T07:48:19.593Z,16.59
2022-09-18T07:50:48.041Z,16.57
2022-09-18T07:53:17.698Z,16.28
2022-09-18T07:55:50.432Z,15.91
2022-09-18T07:58:23.301Z,15.47
2022-09-18T08:00:53.269Z,15.25
2022-09-18T08:03:21.574Z,15.36
2022-09-18T08:05:50.321Z,15.68
2022-09-18T08:08:18.407Z,16.15
2022-09-18T08:10:46.536Z,16.23
2022-09-18T08:13:14.802Z,16.26
2022-09-18T08:15:44.184Z,16.29
2022-09-18T08:18:15.576Z,16.71
2022-09-18T08:20:44.727Z,16.95
2022-09-18T08:23:13.463Z,16.60
2022-09-18T08:25:48.416Z,16.30
2022-09-18T08:28:17.790Z,16.16
2022-09-18T08:30:46.893Z,16.14
2022-09-18T08:33:17.816Z,16.09
2022-09-18T08:35:46.212Z,16.08
2022-09-18T08:38:15.778Z,16.30
2022-09-18T08:41:03.438Z,16.43
2022-09-18T08:43:47.652Z,16.43
2022-09-18T08:46:19.618Z,16.19
2022-09-18T08:48:55.592Z,16.04
2022-09-18T08:51:28.642Z,16.01
2022-09-18T08:54:00.846Z,15.92
2022-09-18T08:56:29.995Z,15.79
2022-09-18T08:59:02.411Z,15.58
2022-09-18T09:01:34.596Z,15.33
2022-09-18T09:04:08.038Z,15.07
2022-09-18T09:06:53.929Z,14.95
2022-09-18T09:09:32.822Z,15.18
2022-09-18T09:12:05.343Z,15.46
2022-09-18T09:15:00.193Z,15.46
2022-09-18T09:17:39.864Z,15.37
2022-09-18T09:20:20.067Z,15.40
2022-09-18T09:22:53.218Z,15.32
2022-09-18T09:25:25.289Z,15.40
2022-09-18T09:27:58.917Z,15.42
2022-09-18T09:30:31.070Z,15.25
2022-09-18T09:33:05.526Z,15.25
2022-09-18T09:35:39.223Z,15.29
2022-09-18T09:38:32.884Z,15.35
2022-09-18T09:41:05.065Z,15.44
2022-09-18T09:43:38.036Z,15.67
2022-09-18T09:46:12.244Z,16.00
2022-09-18T09:48:49.284Z,16.19
2022-09-18T09:51:24.394Z,16.15
2022-09-18T09:53:55.956Z,16.01
2022-09-18T09:56:29.389Z,15.88
2022-09-18T09:59:00.057Z,15.84
2022-09-18T10:01:31.346Z,15.94
2022-09-18T10:04:13.262Z,16.18
2022-09-18T10:06:50.553Z,16.15
2022-09-18T10:09:25.908Z,15.91
2022-09-18T10:12:00.104Z,15.78
2022-09-18T10:14:35.708Z,15.79
2022-09-18T10:17:07.015Z,15.97
2022-09-18T10:19:39.359Z,16.01
2022-09-18T10:22:09.920Z,15.98
2022-09-18T10:24:45.176Z,16.01
2022-09-18T10:27:17.360Z,15.92
2022-09-18T10:29:46.449Z,15.81
2022-09-18T10:32:33.483Z,15.79
2022-09-18T10:35:07.225Z,15.90
2022-09-18T10:37:42.233Z,15.82
2022-09-18T10:40:30.829Z,15.63
2022-09-18T10:43:00.595Z,15.51
2022-09-18T10:45:31.395Z,15.50
2022-09-18T10:48:08.552Z,15.60
2022-09-18T10:50:39.524Z,15.74
2022-09-18T10:53:26.082Z,15.94
2022-09-18T10:55:56.087Z,16.05
2022-09-18T10:58:28.026Z,15.98
2022-09-18T11:00:59.716Z,16.04
2022-09-18T11:03:44.398Z,16.42
2022-09-18T11:06:20.011Z,17.04
2022-09-18T11:08:50.808Z,17.53
2022-09-18T11:11:25.367Z,18.00
2022-09-18T11:13:59.016Z,18.25
2022-09-18T11:16:30.464Z,18.44
2022-09-18T11:19:10.197Z,18.82
2022-09-18T11:21:45.359Z,18.80
2022-09-18T11:24:23.339Z,18.61
2022-09-18T11:26:53.007Z,18.64
2022-09-18T11:29:31.256Z,18.76
2022-09-18T11:32:15.010Z,19.02
2022-09-18T11:34:47.794Z,18.92
2022-09-18T11:37:27.064Z,18.80
2022-09-18T11:40:01.934Z,18.90
2022-09-18T11:42:31.662Z,19.08
2022-09-18T11:45:10.820Z,18.99
2022-09-18T11:47:44.465Z,18.56
2022-09-18T11:50:15.534Z,18.20
2022-09-18T11:52:45.849Z,17.97
2022-09-18T11:55:38.478Z,17.91
2022-09-18T11:58:12.656Z,18.01
2022-09-18T12:00:46.498Z,18.20
2022-09-18T12:03:20.241Z,18.51
2022-09-18T12:05:54.904Z,18.75
2022-09-18T12:08:38.483Z,18.49
2022-09-18T12:11:15.602Z,17.49
2022-09-18T12:13:52.601Z,16.84
2022-09-18T12:16:26.611Z,16.46
2022-09-18T12:19:05.387Z,16.15
2022-09-18T12:21:43.133Z,15.74
2022-09-18T12:24:16.037Z,15.53
2022-09-18T12:26:53.050Z,15.23
2022-09-18T12:29:34.457Z,15.02
2022-09-18T12:32:09.544Z,14.81
2022-09-18T12:34:43.622Z,14.72
2022-09-18T12:37:30.358Z,14.74
2022-09-18T12:40:31.304Z,14.77
2022-09-18T12:43:12.137Z,14.82
2022-09-18T12:46:04.713Z,14.89
2022-09-18T12:48:54.397Z,14.98
2022-09-18T12:51:35.223Z,15.22
2022-09-18T12:54:30.829Z,15.44
2022-09-18T12:57:11.818Z,15.68
2022-09-18T12:59:50.046Z,15.78
2022-09-18T13:02:33.118Z,15.71
2022-09-18T13:05:04.692Z,15.51
2022-09-18T13:07:37.641Z,15.02
2022-09-18T13:10:11.419Z,14.57
2022-09-18T13:12:43.197Z,14.20
2022-09-18T13:15:17.810Z,13.89
2022-09-18T13:17:50.641Z,13.73
2022-09-18T13:20:24.765Z,13.63
2022-09-18T13:22:54.089Z,13.45
2022-09-18T13:25:27.349Z,13.21
2022-09-18T13:27:56.077Z,13.03
2022-09-18T13:30:28.961Z,12.87
2022-09-18T13:32:58.061Z,12.83
2022-09-18T13:35:29.145Z,12.83
2022-09-18T13:38:13.579Z,12.84
2022-09-18T13:40:44.628Z,12.73
2022-09-18T13:43:22.624Z,12.59
2022-09-18T13:45:52.328Z,12.46
2022-09-18T13:48:25.838Z,12.31
2022-09-18T13:50:56.768Z,12.24
2022-09-18T13:53:34.609Z,12.18
2022-09-18T13:56:03.693Z,12.12
2022-09-18T13:59:00.679Z,12.10
2022-09-18T14:02:00.241Z,11.98
2022-09-18T14:05:10.471Z,12.00
2022-09-18T14:08:22.455Z,12.04
2022-09-18T14:11:15.709Z,12.08
2022-09-18T14:13:49.655Z,12.11
2022-09-18T14:16:27.497Z,12.20
2022-09-18T14:19:01.631Z,12.25
2022-09-18T14:21:32.981Z,12.32
2022-09-18T14:24:20.623Z,12.39
2022-09-18T14:26:58.023Z,12.41
2022-09-18T14:29:32.899Z,12.39
2022-09-18T14:32:03.422Z,12.41
2022-09-18T14:34:38.146Z,12.41
2022-09-18T14:37:27.647Z,12.46
2022-09-18T14:39:58.695Z,12.44
2022-09-18T14:42:33.072Z,12.41
2022-09-18T14:45:26.524Z,12.38
2022-09-18T14:47:55.492Z,12.35
2022-09-18T14:50:32.348Z,12.33
2022-09-18T14:53:02.450Z,12.41
2022-09-18T14:55:36.971Z,12.45
2022-09-18T14:58:10.479Z,12.49
2022-09-18T15:00:39.431Z,12.61
2022-09-18T15:03:16.406Z,12.59
2022-09-18T15:05:47.224Z,12.62
2022-09-18T15:08:17.097Z,12.59
2022-09-18T15:10:47.860Z,12.65
2022-09-18T15:13:17.955Z,12.62
2022-09-18T15:15:47.673Z,12.55
2022-09-18T15:18:20.203Z,12.44
2022-09-18T15:20:51.667Z,12.35
2022-09-18T15:23:22.201Z,12.35
2022-09-18T15:25:53.486Z,12.31
2022-09-18T15:28:25.708Z,12.24
2022-09-18T15:30:58.083Z,12.18
2022-09-18T15:33:27.403Z,12.15
2022-09-18T15:35:57.595Z,12.10
2022-09-18T15:38:28.266Z,11.98
2022-09-18T15:40:57.313Z,11.93
2022-09-18T15:43:41.066Z,11.87
2022-09-18T15:46:10.793Z,11.86
2022-09-18T15:48:44.468Z,11.83
2022-09-18T15:51:17.354Z,11.80
2022-09-18T15:54:03.735Z,11.79
2022-09-18T15:56:35.135Z,11.79
2022-09-18T15:59:05.458Z,11.79
2022-09-18T16:01:39.081Z,11.74
2022-09-18T16:04:17.075Z,11.73
2022-09-18T16:06:53.420Z,11.71
2022-09-18T16:09:30.720Z,11.69
2022-09-18T16:12:04.378Z,11.69
2022-09-18T16:14:47.866Z,11.69
2022-09-18T16:17:38.313Z,11.69
2022-09-18T16:20:28.237Z,11.64
2022-09-18T16:23:06.044Z,11.56
2022-09-18T16:25:37.471Z,11.46
2022-09-18T16:28:21.100Z,11.35
2022-09-18T16:30:50.475Z,11.32
2022-09-18T16:33:20.611Z,11.24
2022-09-18T16:36:00.460Z,11.14
2022-09-18T16:38:30.717Z,11.08
2022-09-18T16:40:59.153Z,11.01
2022-09-18T16:43:29.233Z,10.94
2022-09-18T16:45:57.345Z,10.88
2022-09-18T16:48:27.244Z,10.81
2022-09-18T16:50:55.467Z,10.73
2022-09-18T16:53:26.099Z,10.64
2022-09-18T16:56:01.652Z,10.56
2022-09-18T16:58:30.159Z,10.47
2022-09-18T17:00:58.992Z,10.42
2022-09-18T17:03:28.831Z,10.33
2022-09-18T17:06:03.931Z,10.29
2022-09-18T17:08:32.127Z,10.20
2022-09-18T17:11:08.355Z,10.15
2022-09-18T17:13:38.389Z,10.06
2022-09-18T17:16:10.392Z,10.02
2022-09-18T17:18:41.422Z,9.94
2022-09-18T17:21:10.363Z,9.91
2022-09-18T17:23:38.425Z,9.87
2022-09-18T17:26:10.463Z,9.81
2022-09-18T17:28:40.250Z,9.81
2022-09-18T17:31:20.136Z,9.77
2022-09-18T17:33:48.941Z,9.79
2022-09-18T17:36:25.804Z,9.81
2022-09-18T17:38:54.131Z,9.82
2022-09-18T17:41:23.527Z,9.82
2022-09-18T17:43:52.540Z,9.81
2022-09-18T17:46:21.598Z,9.79
2022-09-18T17:48:50.108Z,9.79
2022-09-18T17:51:19.728Z,9.81
2022-09-18T17:53:50.346Z,9.79
2022-09-18T17:56:20.901Z,9.78
2022-09-18T17:58:53.507Z,9.79
2022-09-18T18:01:22.432Z,9.79
2022-09-18T18:03:52.021Z,9.82
2022-09-18T18:06:21.865Z,9.84
2022-09-18T18:08:51.759Z,9.87
2022-09-18T18:11:25.394Z,9.87
2022-09-18T18:13:56.548Z,9.88
2022-09-18T18:16:27.527Z,9.87
2022-09-18T18:18:58.291Z,9.87
2022-09-18T18:21:27.632Z,9.91
2022-09-18T18:23:57.048Z,9.87
2022-09-18T18:26:26.037Z,9.85
2022-09-18T18:28:59.140Z,9.82
2022-09-18T18:31:27.695Z,9.82
2022-09-18T18:33:56.878Z,9.85
2022-09-18T18:36:26.785Z,9.84
2022-09-18T18:39:01.175Z,9.78
2022-09-18T18:41:31.560Z,9.77
2022-09-18T18:44:05.764Z,9.68
2022-09-18T18:46:35.954Z,9.58
2022-09-18T18:49:09.033Z,9.51
2022-09-18T18:51:40.770Z,9.44
2022-09-18T18:54:10.146Z,9.44
2022-09-18T18:56:41.959Z,9.40
2022-09-18T18:59:16.515Z,9.37
2022-09-18T19:01:45.330Z,9.37
2022-09-18T19:04:15.998Z,9.36
2022-09-18T19:06:45.952Z,9.34
2022-09-18T19:09:19.867Z,9.33
2022-09-18T19:11:49.494Z,9.31
2022-09-18T19:14:21.480Z,9.33
2022-09-18T19:16:50.441Z,9.27
2022-09-18T19:19:21.615Z,9.26
2022-09-18T19:21:49.727Z,9.23
2022-09-18T19:24:18.608Z,9.22
2022-09-18T19:26:47.524Z,9.19
2022-09-18T19:29:17.726Z,9.16
2022-09-18T19:31:48.109Z,9.13
2022-09-18T19:34:19.807Z,9.12
2022-09-18T19:36:50.741Z,9.08
2022-09-18T19:39:24.671Z,9.09
2022-09-18T19:41:58.125Z,9.08
2022-09-18T19:44:29.185Z,9.08
2022-09-18T19:47:00.703Z,9.02
2022-09-18T19:49:33.064Z,9.03
2022-09-18T19:52:02.105Z,9.00
2022-09-18T19:54:31.072Z,8.95
2022-09-18T19:56:59.127Z,8.89
2022-09-18T19:59:28.245Z,8.85
2022-09-18T20:01:59.486Z,8.82
2022-09-18T20:04:29.173Z,8.75
2022-09-18T20:06:57.738Z,8.76
2022-09-18T20:09:31.286Z,8.72
2022-09-18T20:12:01.822Z,8.71
2022-09-18T20:14:30.253Z,8.67
2022-09-18T20:17:00.122Z,8.68
2022-09-18T20:19:28.861Z,8.61
2022-09-18T20:22:02.213Z,8.60
2022-09-18T20:24:31.257Z,8.57
2022-09-18T20:27:00.627Z,8.57
2022-09-18T20:29:29.312Z,8.58
2022-09-18T20:32:01.335Z,8.62
2022-09-18T20:34:29.434Z,8.62
2022-09-18T20:36:59.317Z,8.62
2022-09-18T20:39:28.432Z,8.61
2022-09-18T20:42:00.800Z,8.60
2022-09-18T20:44:35.177Z,8.61
2022-09-18T20:47:05.287Z,8.60
2022-09-18T20:49:34.926Z,8.58
2022-09-18T20:52:05.778Z,8.60
2022-09-18T20:54:33.959Z,8.64
2022-09-18T20:57:02.343Z,8.65
2022-09-18T20:59:31.372Z,8.65
2022-09-18T21:01:59.672Z,8.65
2022-09-18T21:04:31.951Z,8.65
2022-09-18T21:07:01.646Z,8.62
2022-09-18T21:09:31.963Z,8.64
2022-09-18T21:12:02.587Z,8.65
2022-09-18T21:14:31.853Z,8.65
2022-09-18T21:17:00.897Z,8.67
2022-09-18T21:19:31.449Z,8.67
2022-09-18T21:22:00.110Z,8.67
2022-09-18T21:24:32.503Z,8.67
2022-09-18T21:27:00.438Z,8.69
2022-09-18T21:29:30.132Z,8.68
2022-09-18T21:32:01.047Z,8.71
2022-09-18T21:34:33.479Z,8.69
2022-09-18T21:37:01.795Z,8.71
2022-09-18T21:39:32.418Z,8.69
2022-09-18T21:42:02.480Z,8.69
2022-09-18T21:44:32.566Z,8.71
2022-09-18T21:47:03.349Z,8.73
2022-09-18T21:49:33.539Z,8.73
2022-09-18T21:52:04.097Z,8.73
2022-09-18T21:54:33.267Z,8.73
2022-09-18T21:57:01.737Z,8.75
2022-09-18T21:59:32.097Z,8.76
2022-09-18T22:02:07.041Z,8.78
2022-09-18T22:04:38.661Z,8.79
2022-09-18T22:07:07.108Z,8.79
2022-09-18T22:09:38.265Z,8.76
2022-09-18T22:12:10.432Z,8.76
2022-09-18T22:14:39.247Z,8.78
2022-09-18T22:17:10.551Z,8.76
2022-09-18T22:19:41.765Z,8.75
2022-09-18T22:22:10.480Z,8.75
2022-09-18T22:24:39.307Z,8.76
2022-09-18T22:27:08.267Z,8.75
2022-09-18T22:29:39.716Z,8.76
2022-09-18T22:32:08.982Z,8.81
2022-09-18T22:34:39.111Z,8.85
2022-09-18T22:37:10.748Z,8.85
2022-09-18T22:39:39.036Z,8.83
2022-09-18T22:42:07.280Z,8.83
2022-09-18T22:44:35.673Z,8.83
2022-09-18T22:47:05.117Z,8.85
2022-09-18T22:49:33.449Z,8.86
2022-09-18T22:52:01.494Z,8.85
2022-09-18T22:54:34.011Z,8.88
2022-09-18T22:57:02.643Z,8.88
2022-09-18T22:59:31.126Z,8.86
2022-09-18T23:02:01.521Z,8.89
2022-09-18T23:04:31.833Z,8.89
2022-09-18T23:07:01.645Z,8.88
2022-09-18T23:09:33.993Z,8.86
2022-09-18T23:12:02.683Z,8.85
2022-09-18T23:14:32.334Z,8.78
2022-09-18T23:17:05.035Z,8.72
2022-09-18T23:19:35.126Z,8.65
2022-09-18T23:22:05.397Z,8.60
2022-09-18T23:24:38.564Z,8.51
2022-09-18T23:27:07.004Z,8.47
2022-09-18T23:29:38.080Z,8.42
2022-09-18T23:32:07.424Z,8.37
2022-09-18T23:34:36.374Z,8.38
2022-09-18T23:37:06.210Z,8.37
2022-09-18T23:39:36.060Z,8.31
2022-09-18T23:42:06.513Z,8.27
2022-09-18T23:44:35.163Z,8.24
2022-09-18T23:47:04.109Z,8.21
2022-09-18T23:49:33.571Z,8.21
2022-09-18T23:52:02.900Z,8.23
2022-09-18T23:54:33.625Z,8.26
2022-09-18T23:57:04.882Z,8.29
2022-09-18T23:59:33.952Z,8.31
